sensor_id;sensor_type;location;lat;lon;timestamp;pressure;altitude;pressure_sealevel;temperature;humidity
73085;BME280;62974;49.460;10.892;2024-03-02T00:00:34;96599.47;;;5.64;100.00
73085;BME280;62974;49.460;10.892;2024-03-02T00:03:02;96604.56;;;5.66;100.00
73085;BME280;62974;49.460;10.892;2024-03-02T00:05:30;96595.75;;;5.65;100.00
73085;BME280;62974;49.460;10.892;2024-03-02T00:07:59;96594.94;;;5.65;100.00
73085;BME280;62974;49.460;10.892;2024-03-02T00:10:33;96594.94;;;5.65;100.00
73085;BME280;62974;49.460;10.892;2024-03-02T00:13:03;96595.75;;;5.65;100.00
73085;BME280;62974;49.460;10.892;2024-03-02T00:15:40;96579.53;;;5.54;100.00
73085;BME280;62974;49.460;10.892;2024-03-02T00:18:11;96575.06;;;5.61;100.00
73085;BME280;62974;49.460;10.892;2024-03-02T00:20:40;96584.50;;;5.63;100.00
73085;BME280;62974;49.460;10.892;2024-03-02T00:23:10;96571.34;;;5.49;100.00
73085;BME280;62974;49.460;10.892;2024-03-02T00:25:40;96579.75;;;5.59;100.00
73085;BME280;62974;49.460;10.892;2024-03-02T00:28:17;96585.50;;;5.62;100.00
73085;BME280;62974;49.460;10.892;2024-03-02T00:30:54;96590.63;;;5.64;100.00
73085;BME280;62974;49.460;10.892;2024-03-02T00:33:22;96585.06;;;5.52;100.00
73085;BME280;62974;49.460;10.892;2024-03-02T00:35:51;96552.88;;;5.41;100.00
73085;BME280;62974;49.460;10.892;2024-03-02T00:38:21;96571.16;;;5.57;100.00
73085;BME280;62974;49.460;10.892;2024-03-02T00:40:49;96579.56;;;5.60;100.00
73085;BME280;62974;49.460;10.892;2024-03-02T00:43:44;96592.41;;;5.50;100.00
73085;BME280;62974;49.460;10.892;2024-03-02T00:46:18;96572.59;;;5.53;100.00
73085;BME280;62974;49.460;10.892;2024-03-02T00:48:55;96586.91;;;5.58;100.00
73085;BME280;62974;49.460;10.892;2024-03-02T00:51:25;96590.41;;;5.59;100.00
73085;BME280;62974;49.460;10.892;2024-03-02T00:53:57;96585.28;;;5.57;100.00
73085;BME280;62974;49.460;10.892;2024-03-02T00:56:25;96576.25;;;5.52;100.00
73085;BME280;62974;49.460;10.892;2024-03-02T00:58:53;96579.94;;;5.51;100.00
73085;BME280;62974;49.460;10.892;2024-03-02T01:01:21;96574.00;;;5.49;100.00
73085;BME280;62974;49.460;10.892;2024-03-02T01:03:49;96585.25;;;5.51;100.00
73085;BME280;62974;49.460;10.892;2024-03-02T01:06:16;96598.56;;;5.51;100.00
73085;BME280;62974;49.460;10.892;2024-03-02T01:08:45;96603.50;;;5.54;100.00
73085;BME280;62974;49.460;10.892;2024-03-02T01:11:14;96569.34;;;5.16;100.00
73085;BME280;62974;49.460;10.892;2024-03-02T01:13:42;96530.63;;;5.14;100.00
73085;BME280;62974;49.460;10.892;2024-03-02T01:16:10;96542.22;;;5.41;100.00
73085;BME280;62974;49.460;10.892;2024-03-02T01:18:37;96562.09;;;5.45;100.00
73085;BME280;62974;49.460;10.892;2024-03-02T01:21:05;96573.59;;;5.45;100.00
73085;BME280;62974;49.460;10.892;2024-03-02T01:23:33;96570.91;;;5.45;100.00
73085;BME280;62974;49.460;10.892;2024-03-02T01:26:01;96576.25;;;5.45;100.00
73085;BME280;62974;49.460;10.892;2024-03-02T01:28:29;96580.34;;;5.48;100.00
73085;BME280;62974;49.460;10.892;2024-03-02T01:30:57;96574.38;;;5.46;100.00
73085;BME280;62974;49.460;10.892;2024-03-02T01:33:25;96586.66;;;5.47;100.00
73085;BME280;62974;49.460;10.892;2024-03-02T01:35:52;96592.81;;;5.47;100.00
73085;BME280;62974;49.460;10.892;2024-03-02T01:38:20;96599.38;;;5.45;100.00
73085;BME280;62974;49.460;10.892;2024-03-02T01:40:48;96584.00;;;5.47;100.00
73085;BME280;62974;49.460;10.892;2024-03-02T01:43:15;96598.34;;;5.46;100.00
73085;BME280;62974;49.460;10.892;2024-03-02T01:45:44;96595.88;;;5.44;100.00
73085;BME280;62974;49.460;10.892;2024-03-02T01:48:12;96591.97;;;5.40;100.00
73085;BME280;62974;49.460;10.892;2024-03-02T01:50:40;96597.91;;;5.42;100.00
73085;BME280;62974;49.460;10.892;2024-03-02T01:53:08;96594.22;;;5.43;100.00
73085;BME280;62974;49.460;10.892;2024-03-02T01:55:36;96594.41;;;5.42;100.00
73085;BME280;62974;49.460;10.892;2024-03-02T01:58:03;96600.56;;;5.42;100.00
73085;BME280;62974;49.460;10.892;2024-03-02T02:00:31;96595.25;;;5.42;100.00
73085;BME280;62974;49.460;10.892;2024-03-02T02:03:00;96594.63;;;5.40;100.00
73085;BME280;62974;49.460;10.892;2024-03-02T02:05:28;96597.50;;;5.39;100.00
73085;BME280;62974;49.460;10.892;2024-03-02T02:07:56;96601.97;;;5.38;100.00
73085;BME280;62974;49.460;10.892;2024-03-02T02:10:24;96599.13;;;5.40;100.00
73085;BME280;62974;49.460;10.892;2024-03-02T02:12:52;96598.91;;;5.35;100.00
73085;BME280;62974;49.460;10.892;2024-03-02T02:15:24;96595.22;;;5.36;100.00
73085;BME280;62974;49.460;10.892;2024-03-02T02:17:52;96595.22;;;5.36;100.00
73085;BME280;62974;49.460;10.892;2024-03-02T02:20:21;96607.53;;;5.37;100.00
73085;BME280;62974;49.460;10.892;2024-03-02T02:22:55;96611.81;;;5.38;100.00
73085;BME280;62974;49.460;10.892;2024-03-02T02:25:23;96601.16;;;5.38;100.00
73085;BME280;62974;49.460;10.892;2024-03-02T02:27:51;96601.38;;;5.36;100.00
73085;BME280;62974;49.460;10.892;2024-03-02T02:30:20;96599.53;;;5.37;100.00
73085;BME280;62974;49.460;10.892;2024-03-02T02:32:48;96596.06;;;5.36;100.00
73085;BME280;62974;49.460;10.892;2024-03-02T02:35:16;96598.72;;;5.36;100.00
73085;BME280;62974;49.460;10.892;2024-03-02T02:37:44;96598.72;;;5.36;100.00
73085;BME280;62974;49.460;10.892;2024-03-02T02:40:14;96598.72;;;5.36;100.00
73085;BME280;62974;49.460;10.892;2024-03-02T02:42:41;96607.53;;;5.37;100.00
73085;BME280;62974;49.460;10.892;2024-03-02T02:45:09;96596.06;;;5.36;100.00
73085;BME280;62974;49.460;10.892;2024-03-02T02:47:38;96596.88;;;5.37;100.00
73085;BME280;62974;49.460;10.892;2024-03-02T02:50:07;96575.69;;;5.22;100.00
73085;BME280;62974;49.460;10.892;2024-03-02T02:52:36;96582.50;;;5.31;100.00
73085;BME280;62974;49.460;10.892;2024-03-02T02:55:07;96570.22;;;5.30;100.00
73085;BME280;62974;49.460;10.892;2024-03-02T02:57:37;96560.56;;;5.22;100.00
73085;BME280;62974;49.460;10.892;2024-03-02T03:00:07;96565.72;;;5.31;100.00
73085;BME280;62974;49.460;10.892;2024-03-02T03:02:40;96570.03;;;5.32;100.00
73085;BME280;62974;49.460;10.892;2024-03-02T03:05:10;96578.84;;;5.32;100.00
73085;BME280;62974;49.460;10.892;2024-03-02T03:07:38;96580.50;;;5.33;100.00
73085;BME280;62974;49.460;10.892;2024-03-02T03:10:07;96565.06;;;5.22;100.00
73085;BME280;62974;49.460;10.892;2024-03-02T03:12:36;96571.41;;;5.21;100.00
73085;BME280;62974;49.460;10.892;2024-03-02T03:15:05;96555.63;;;5.13;100.00
73085;BME280;62974;49.460;10.892;2024-03-02T03:17:33;96554.22;;;5.24;100.00
73085;BME280;62974;49.460;10.892;2024-03-02T03:20:01;96521.19;;;5.05;100.00
73085;BME280;62974;49.460;10.892;2024-03-02T03:22:30;96534.25;;;5.00;100.00
73085;BME280;62974;49.460;10.892;2024-03-02T03:24:58;96523.69;;;5.13;100.00
73085;BME280;62974;49.460;10.892;2024-03-02T03:27:26;96530.59;;;5.07;100.00
73085;BME280;62974;49.460;10.892;2024-03-02T03:29:55;96533.69;;;5.11;100.00
73085;BME280;62974;49.460;10.892;2024-03-02T03:32:23;96542.75;;;5.23;100.00
73085;BME280;62974;49.460;10.892;2024-03-02T03:34:51;96547.06;;;5.24;100.00
73085;BME280;62974;49.460;10.892;2024-03-02T03:37:18;96546.06;;;5.25;100.00
73085;BME280;62974;49.460;10.892;2024-03-02T03:39:46;96558.06;;;5.14;100.00
73085;BME280;62974;49.460;10.892;2024-03-02T03:42:14;96507.84;;;4.98;100.00
73085;BME280;62974;49.460;10.892;2024-03-02T03:44:41;96481.25;;;4.98;100.00
73085;BME280;62974;49.460;10.892;2024-03-02T03:47:10;96482.13;;;5.12;100.00
73085;BME280;62974;49.460;10.892;2024-03-02T03:49:38;96456.03;;;4.81;100.00
73085;BME280;62974;49.460;10.892;2024-03-02T03:52:05;96428.63;;;4.87;100.00
73085;BME280;62974;49.460;10.892;2024-03-02T03:54:33;96440.16;;;5.07;100.00
73085;BME280;62974;49.460;10.892;2024-03-02T03:57:03;96440.97;;;5.08;100.00
73085;BME280;62974;49.460;10.892;2024-03-02T03:59:31;96449.19;;;5.13;100.00
73085;BME280;62974;49.460;10.892;2024-03-02T04:01:59;96454.09;;;5.09;100.00
73085;BME280;62974;49.460;10.892;2024-03-02T04:04:30;96474.03;;;4.86;100.00
73085;BME280;62974;49.460;10.892;2024-03-02T04:06:57;96404.09;;;4.92;100.00
73085;BME280;62974;49.460;10.892;2024-03-02T04:09:25;96386.06;;;4.87;100.00
73085;BME280;62974;49.460;10.892;2024-03-02T04:11:53;96368.06;;;4.83;100.00
73085;BME280;62974;49.460;10.892;2024-03-02T04:14:21;96372.97;;;4.86;100.00
73085;BME280;62974;49.460;10.892;2024-03-02T04:16:49;96399.38;;;4.94;100.00
73085;BME280;62974;49.460;10.892;2024-03-02T04:19:16;96413.72;;;4.93;100.00
73085;BME280;62974;49.460;10.892;2024-03-02T04:21:45;96430.88;;;4.90;100.00
73085;BME280;62974;49.460;10.892;2024-03-02T04:24:13;96439.72;;;4.97;100.00
73085;BME280;62974;49.460;10.892;2024-03-02T04:26:41;96478.81;;;5.03;100.00
73085;BME280;62974;49.460;10.892;2024-03-02T04:29:08;96494.59;;;5.05;100.00
73085;BME280;62974;49.460;10.892;2024-03-02T04:31:36;96498.06;;;5.05;100.00
73085;BME280;62974;49.460;10.892;2024-03-02T04:34:04;96479.16;;;4.87;100.00
73085;BME280;62974;49.460;10.892;2024-03-02T04:36:31;96470.16;;;4.88;100.00
73085;BME280;62974;49.460;10.892;2024-03-02T04:39:03;96460.13;;;4.84;100.00
73085;BME280;62974;49.460;10.892;2024-03-02T04:41:31;96499.91;;;5.05;100.00
73085;BME280;62974;49.460;10.892;2024-03-02T04:43:59;96518.31;;;5.06;100.00
73085;BME280;62974;49.460;10.892;2024-03-02T04:46:26;96538.31;;;4.96;100.00
73085;BME280;62974;49.460;10.892;2024-03-02T04:48:55;96533.84;;;5.03;100.00
73085;BME280;62974;49.460;10.892;2024-03-02T04:51:23;96543.31;;;5.05;100.00
73085;BME280;62974;49.460;10.892;2024-03-02T04:53:51;96559.44;;;5.04;100.00
73085;BME280;62974;49.460;10.892;2024-03-02T04:56:20;96559.22;;;4.99;100.00
73085;BME280;62974;49.460;10.892;2024-03-02T04:59:06;96532.41;;;4.66;100.00
73085;BME280;62974;49.460;10.892;2024-03-02T05:01:34;96523.13;;;4.90;100.00
73085;BME280;62974;49.460;10.892;2024-03-02T05:04:01;96486.88;;;4.76;100.00
73085;BME280;62974;49.460;10.892;2024-03-02T05:06:29;96495.94;;;4.88;100.00
73085;BME280;62974;49.460;10.892;2024-03-02T05:08:57;96501.66;;;4.85;100.00
73085;BME280;62974;49.460;10.892;2024-03-02T05:11:26;96523.31;;;4.82;100.00
73085;BME280;62974;49.460;10.892;2024-03-02T05:14:16;96535.41;;;4.84;100.00
73085;BME280;62974;49.460;10.892;2024-03-02T05:16:44;96531.72;;;4.85;100.00
73085;BME280;62974;49.460;10.892;2024-03-02T05:19:11;96528.81;;;4.80;100.00
73085;BME280;62974;49.460;10.892;2024-03-02T05:21:39;96511.78;;;4.68;100.00
73085;BME280;62974;49.460;10.892;2024-03-02T05:24:07;96490.13;;;4.37;100.00
73085;BME280;62974;49.460;10.892;2024-03-02T05:26:36;96488.19;;;4.58;100.00
73085;BME280;62974;49.460;10.892;2024-03-02T05:29:03;96523.75;;;4.85;100.00
73085;BME280;62974;49.460;10.892;2024-03-02T05:31:31;96535.81;;;4.88;100.00
73085;BME280;62974;49.460;10.892;2024-03-02T05:33:58;96536.16;;;4.78;100.00
73085;BME280;62974;49.460;10.892;2024-03-02T05:36:26;96517.91;;;4.68;100.00
73085;BME280;62974;49.460;10.892;2024-03-02T05:38:54;96509.38;;;4.73;100.00
73085;BME280;62974;49.460;10.892;2024-03-02T05:41:21;96528.19;;;4.78;100.00
73085;BME280;62974;49.460;10.892;2024-03-02T05:43:50;96506.09;;;4.43;100.00
73085;BME280;62974;49.460;10.892;2024-03-02T05:46:18;96492.59;;;4.72;100.00
73085;BME280;62974;49.460;10.892;2024-03-02T05:48:45;96527.59;;;4.83;100.00
73085;BME280;62974;49.460;10.892;2024-03-02T05:51:13;96537.63;;;4.81;100.00
73085;BME280;62974;49.460;10.892;2024-03-02T05:53:40;96542.13;;;4.80;100.00
73085;BME280;62974;49.460;10.892;2024-03-02T05:56:08;96557.84;;;4.75;100.00
73085;BME280;62974;49.460;10.892;2024-03-02T05:58:36;96574.03;;;4.80;100.00
73085;BME280;62974;49.460;10.892;2024-03-02T06:01:20;96574.63;;;4.76;100.00
73085;BME280;62974;49.460;10.892;2024-03-02T06:03:54;96564.81;;;4.76;100.00
73085;BME280;62974;49.460;10.892;2024-03-02T06:06:22;96550.25;;;4.72;100.00
73085;BME280;62974;49.460;10.892;2024-03-02T06:08:50;96551.09;;;4.45;100.00
73085;BME280;62974;49.460;10.892;2024-03-02T06:11:19;96511.63;;;4.42;100.00
73085;BME280;62974;49.460;10.892;2024-03-02T06:13:47;96493.78;;;4.08;100.00
73085;BME280;62974;49.460;10.892;2024-03-02T06:16:14;96488.06;;;4.39;100.00
73085;BME280;62974;49.460;10.892;2024-03-02T06:18:43;96504.72;;;4.54;100.00
73085;BME280;62974;49.460;10.892;2024-03-02T06:21:11;96542.69;;;4.69;100.00
73085;BME280;62974;49.460;10.892;2024-03-02T06:23:39;96551.53;;;4.48;100.00
73085;BME280;62974;49.460;10.892;2024-03-02T06:26:08;96554.50;;;4.39;100.00
73085;BME280;62974;49.460;10.892;2024-03-02T06:28:36;96562.25;;;4.61;100.00
73085;BME280;62974;49.460;10.892;2024-03-02T06:31:03;96579.06;;;4.68;100.00
73085;BME280;62974;49.460;10.892;2024-03-02T06:33:31;96577.28;;;4.76;100.00
73085;BME280;62974;49.460;10.892;2024-03-02T06:36:00;96572.94;;;4.68;100.00
73085;BME280;62974;49.460;10.892;2024-03-02T06:38:28;96574.00;;;4.73;100.00
73085;BME280;62974;49.460;10.892;2024-03-02T06:40:58;96580.94;;;4.74;100.00
73085;BME280;62974;49.460;10.892;2024-03-02T06:43:26;96595.22;;;4.67;100.00
73085;BME280;62974;49.460;10.892;2024-03-02T06:45:53;96565.56;;;4.70;100.00
73085;BME280;62974;49.460;10.892;2024-03-02T06:48:21;96563.25;;;4.60;100.00
73085;BME280;62974;49.460;10.892;2024-03-02T06:50:50;96550.97;;;4.59;100.00
73085;BME280;62974;49.460;10.892;2024-03-02T06:53:19;96550.22;;;4.65;100.00
73085;BME280;62974;49.460;10.892;2024-03-02T06:55:47;96563.72;;;4.70;100.00
73085;BME280;62974;49.460;10.892;2024-03-02T06:58:17;96553.75;;;4.72;100.00
73085;BME280;62974;49.460;10.892;2024-03-02T07:00:45;96573.75;;;4.68;100.00
73085;BME280;62974;49.460;10.892;2024-03-02T07:03:14;96555.66;;;4.85;100.00
73085;BME280;62974;49.460;10.892;2024-03-02T07:05:41;96559.78;;;4.94;100.00
73085;BME280;62974;49.460;10.892;2024-03-02T07:08:09;96531.50;;;4.87;100.00
73085;BME280;62974;49.460;10.892;2024-03-02T07:10:38;96530.19;;;5.04;100.00
73085;BME280;62974;49.460;10.892;2024-03-02T07:13:05;96543.66;;;5.02;100.00
73085;BME280;62974;49.460;10.892;2024-03-02T07:15:33;96452.38;;;4.95;100.00
73085;BME280;62974;49.460;10.892;2024-03-02T07:18:14;96422.53;;;5.00;100.00
73085;BME280;62974;49.460;10.892;2024-03-02T07:20:42;96399.66;;;5.05;100.00
73085;BME280;62974;49.460;10.892;2024-03-02T07:23:10;96406.00;;;5.11;100.00
73085;BME280;62974;49.460;10.892;2024-03-02T07:25:39;96402.53;;;5.24;100.00
73085;BME280;62974;49.460;10.892;2024-03-02T07:28:09;96397.03;;;5.32;100.00
73085;BME280;62974;49.460;10.892;2024-03-02T07:30:37;96371.22;;;5.26;100.00
73085;BME280;62974;49.460;10.892;2024-03-02T07:33:05;96355.47;;;5.24;100.00
73085;BME280;62974;49.460;10.892;2024-03-02T07:35:33;96349.91;;;5.26;100.00
73085;BME280;62974;49.460;10.892;2024-03-02T07:38:01;96344.81;;;5.31;100.00
73085;BME280;62974;49.460;10.892;2024-03-02T07:40:29;96359.56;;;5.40;100.00
73085;BME280;62974;49.460;10.892;2024-03-02T07:42:58;96373.28;;;5.43;100.00
73085;BME280;62974;49.460;10.892;2024-03-02T07:45:25;96363.47;;;5.50;100.00
73085;BME280;62974;49.460;10.892;2024-03-02T07:47:53;96343.22;;;5.56;100.00
73085;BME280;62974;49.460;10.892;2024-03-02T07:50:21;96365.94;;;5.58;100.00
73085;BME280;62974;49.460;10.892;2024-03-02T07:52:48;96361.44;;;5.72;100.00
73085;BME280;62974;49.460;10.892;2024-03-02T07:55:16;96355.91;;;5.67;100.00
73085;BME280;62974;49.460;10.892;2024-03-02T07:57:44;96342.78;;;5.79;100.00
73085;BME280;62974;49.460;10.892;2024-03-02T08:00:16;96365.31;;;5.83;100.00
73085;BME280;62974;49.460;10.892;2024-03-02T08:02:44;96360.41;;;5.86;100.00
73085;BME280;62974;49.460;10.892;2024-03-02T08:05:13;96351.38;;;6.07;100.00
73085;BME280;62974;49.460;10.892;2024-03-02T08:07:41;96346.88;;;6.07;100.00
73085;BME280;62974;49.460;10.892;2024-03-02T08:10:09;96382.94;;;5.90;100.00
73085;BME280;62974;49.460;10.892;2024-03-02T08:12:37;96371.03;;;6.19;100.00
73085;BME280;62974;49.460;10.892;2024-03-02T08:15:05;96371.44;;;6.23;100.00
73085;BME280;62974;49.460;10.892;2024-03-02T08:17:34;96390.31;;;6.14;100.00
73085;BME280;62974;49.460;10.892;2024-03-02T08:20:05;96381.84;;;6.37;100.00
73085;BME280;62974;49.460;10.892;2024-03-02T08:22:34;96397.72;;;6.12;100.00
73085;BME280;62974;49.460;10.892;2024-03-02T08:25:02;96411.41;;;6.36;100.00
73085;BME280;62974;49.460;10.892;2024-03-02T08:27:30;96417.16;;;6.26;100.00
73085;BME280;62974;49.460;10.892;2024-03-02T08:29:59;96414.91;;;6.23;100.00
73085;BME280;62974;49.460;10.892;2024-03-02T08:32:27;96419.38;;;6.29;100.00
73085;BME280;62974;49.460;10.892;2024-03-02T08:34:56;96412.63;;;6.40;100.00
73085;BME280;62974;49.460;10.892;2024-03-02T08:37:23;96421.22;;;6.48;100.00
73085;BME280;62974;49.460;10.892;2024-03-02T08:39:51;96439.06;;;6.48;100.00
73085;BME280;62974;49.460;10.892;2024-03-02T08:42:20;96434.56;;;6.48;100.00
73085;BME280;62974;49.460;10.892;2024-03-02T08:44:48;96447.81;;;6.75;100.00
73085;BME280;62974;49.460;10.892;2024-03-02T08:47:16;96455.97;;;6.86;100.00
73085;BME280;62974;49.460;10.892;2024-03-02T08:49:44;96480.25;;;6.65;100.00
73085;BME280;62974;49.460;10.892;2024-03-02T08:52:13;96487.41;;;6.78;100.00
73085;BME280;62974;49.460;10.892;2024-03-02T08:54:40;96453.63;;;7.09;100.00
73085;BME280;62974;49.460;10.892;2024-03-02T08:57:08;96483.84;;;6.97;100.00
73085;BME280;62974;49.460;10.892;2024-03-02T08:59:36;96492.44;;;7.05;100.00
73085;BME280;62974;49.460;10.892;2024-03-02T09:02:03;96502.31;;;7.05;100.00
73085;BME280;62974;49.460;10.892;2024-03-02T09:04:31;96505.31;;;7.22;100.00
73085;BME280;62974;49.460;10.892;2024-03-02T09:07:01;96506.78;;;7.24;100.00
73085;BME280;62974;49.460;10.892;2024-03-02T09:09:30;96510.66;;;7.28;100.00
73085;BME280;62974;49.460;10.892;2024-03-02T09:11:59;96514.16;;;7.22;100.00
73085;BME280;62974;49.460;10.892;2024-03-02T09:14:26;96524.25;;;7.14;100.00
73085;BME280;62974;49.460;10.892;2024-03-02T09:16:54;96514.97;;;7.23;100.00
73085;BME280;62974;49.460;10.892;2024-03-02T09:19:22;96529.63;;;7.07;100.00
73085;BME280;62974;49.460;10.892;2024-03-02T09:21:49;96538.97;;;7.29;100.00
73085;BME280;62974;49.460;10.892;2024-03-02T09:24:18;96552.94;;;7.25;100.00
73085;BME280;62974;49.460;10.892;2024-03-02T09:26:47;96544.38;;;7.09;100.00
73085;BME280;62974;49.460;10.892;2024-03-02T09:29:15;96539.53;;;7.44;100.00
73085;BME280;62974;49.460;10.892;2024-03-02T09:31:44;96546.06;;;7.55;100.00
73085;BME280;62974;49.460;10.892;2024-03-02T09:34:12;96569.88;;;7.56;100.00
73085;BME280;62974;49.460;10.892;2024-03-02T09:36:40;96573.53;;;7.75;100.00
73085;BME280;62974;49.460;10.892;2024-03-02T09:39:08;96575.41;;;7.62;100.00
73085;BME280;62974;49.460;10.892;2024-03-02T09:41:39;96584.66;;;7.66;100.00
73085;BME280;62974;49.460;10.892;2024-03-02T09:44:08;96584.06;;;7.64;100.00
73085;BME280;62974;49.460;10.892;2024-03-02T09:46:36;96578.38;;;7.91;100.00
73085;BME280;62974;49.460;10.892;2024-03-02T09:49:03;96588.69;;;7.81;100.00
73085;BME280;62974;49.460;10.892;2024-03-02T09:51:31;96586.78;;;7.95;100.00
73085;BME280;62974;49.460;10.892;2024-03-02T09:54:00;96584.16;;;7.82;100.00
73085;BME280;62974;49.460;10.892;2024-03-02T09:56:43;96610.59;;;7.59;100.00
73085;BME280;62974;49.460;10.892;2024-03-02T09:59:12;96603.59;;;7.57;100.00
73085;BME280;62974;49.460;10.892;2024-03-02T10:01:55;96601.91;;;7.70;100.00
73085;BME280;62974;49.460;10.892;2024-03-02T10:04:25;96613.47;;;8.01;100.00
73085;BME280;62974;49.460;10.892;2024-03-02T10:07:09;96606.19;;;7.77;100.00
73085;BME280;62974;49.460;10.892;2024-03-02T10:09:38;96621.03;;;8.11;100.00
73085;BME280;62974;49.460;10.892;2024-03-02T10:12:07;96614.03;;;8.10;100.00
73085;BME280;62974;49.460;10.892;2024-03-02T10:14:40;96608.50;;;8.05;100.00
73085;BME280;62974;49.460;10.892;2024-03-02T10:17:10;96611.41;;;8.03;100.00
73085;BME280;62974;49.460;10.892;2024-03-02T10:19:38;96616.53;;;8.12;100.00
73085;BME280;62974;49.460;10.892;2024-03-02T10:22:07;96629.88;;;8.49;100.00
73085;BME280;62974;49.460;10.892;2024-03-02T10:24:36;96636.19;;;8.24;100.00
73085;BME280;62974;49.460;10.892;2024-03-02T10:27:09;96637.13;;;8.42;100.00
73085;BME280;62974;49.460;10.892;2024-03-02T10:29:39;96625.28;;;8.32;100.00
73085;BME280;62974;49.460;10.892;2024-03-02T10:32:10;96640.78;;;8.48;100.00
73085;BME280;62974;49.460;10.892;2024-03-02T10:34:39;96637.78;;;8.69;100.00
73085;BME280;62974;49.460;10.892;2024-03-02T10:37:08;96638.59;;;8.70;100.00
73085;BME280;62974;49.460;10.892;2024-03-02T10:39:36;96644.16;;;8.93;100.00
73085;BME280;62974;49.460;10.892;2024-03-02T10:42:07;96633.38;;;8.50;100.00
73085;BME280;62974;49.460;10.892;2024-03-02T10:44:35;96639.81;;;8.99;100.00
73085;BME280;62974;49.460;10.892;2024-03-02T10:47:05;96640.44;;;8.69;100.00
73085;BME280;62974;49.460;10.892;2024-03-02T10:49:33;96638.91;;;8.80;100.00
73085;BME280;62974;49.460;10.892;2024-03-02T10:52:01;96633.28;;;8.63;100.00
73085;BME280;62974;49.460;10.892;2024-03-02T10:54:29;96618.09;;;8.57;100.00
73085;BME280;62974;49.460;10.892;2024-03-02T10:57:04;96626.47;;;8.92;100.00
73085;BME280;62974;49.460;10.892;2024-03-02T10:59:33;96647.72;;;9.12;100.00
73085;BME280;62974;49.460;10.892;2024-03-02T11:02:05;96648.03;;;9.22;100.00
73085;BME280;62974;49.460;10.892;2024-03-02T11:04:36;96638.53;;;9.01;100.00
73085;BME280;62974;49.460;10.892;2024-03-02T11:07:07;96627.47;;;8.98;100.00
73085;BME280;62974;49.460;10.892;2024-03-02T11:09:40;96634.63;;;9.04;100.00
73085;BME280;62974;49.460;10.892;2024-03-02T11:12:12;96637.22;;;9.35;100.00
73085;BME280;62974;49.460;10.892;2024-03-02T11:14:44;96637.13;;;9.23;100.00
73085;BME280;62974;49.460;10.892;2024-03-02T11:17:14;96644.75;;;9.63;100.00
73085;BME280;62974;49.460;10.892;2024-03-02T11:19:43;96649.88;;;9.64;100.00
73085;BME280;62974;49.460;10.892;2024-03-02T11:22:11;96654.56;;;9.69;100.00
73085;BME280;62974;49.460;10.892;2024-03-02T11:24:47;96654.34;;;9.52;100.00
73085;BME280;62974;49.460;10.892;2024-03-02T11:30:49;96634.28;;;9.36;100.00
73085;BME280;62974;49.460;10.892;2024-03-02T11:33:26;96635.50;;;9.40;100.00
73085;BME280;62974;49.460;10.892;2024-03-02T11:35:56;96651.44;;;9.72;100.00
73085;BME280;62974;49.460;10.892;2024-03-02T11:38:30;96652.59;;;10.12;100.00
73085;BME280;62974;49.460;10.892;2024-03-02T11:40:59;96662.38;;;9.88;100.00
73085;BME280;62974;49.460;10.892;2024-03-02T11:43:28;96656.59;;;9.73;100.00
73085;BME280;62974;49.460;10.892;2024-03-02T11:45:59;96655.25;;;9.82;100.00
73085;BME280;62974;49.460;10.892;2024-03-02T11:48:29;96650.00;;;10.24;100.00
73085;BME280;62974;49.460;10.892;2024-03-02T11:50:58;96644.56;;;10.30;100.00
73085;BME280;62974;49.460;10.892;2024-03-02T11:53:27;96645.19;;;10.44;100.00
73085;BME280;62974;49.460;10.892;2024-03-02T11:55:58;96636.38;;;10.25;100.00
73085;BME280;62974;49.460;10.892;2024-03-02T11:58:27;96637.34;;;10.13;100.00
73085;BME280;62974;49.460;10.892;2024-03-02T12:00:56;96627.66;;;10.30;100.00
73085;BME280;62974;49.460;10.892;2024-03-02T12:03:25;96611.94;;;10.15;100.00
73085;BME280;62974;49.460;10.892;2024-03-02T12:05:55;96629.25;;;10.61;100.00
73085;BME280;62974;49.460;10.892;2024-03-02T12:08:23;96630.19;;;10.55;100.00
73085;BME280;62974;49.460;10.892;2024-03-02T12:10:58;96628.91;;;10.57;100.00
73085;BME280;62974;49.460;10.892;2024-03-02T12:13:27;96620.50;;;10.24;100.00
73085;BME280;62974;49.460;10.892;2024-03-02T12:15:55;96617.09;;;10.47;100.00
73085;BME280;62974;49.460;10.892;2024-03-02T12:18:24;96614.63;;;10.45;100.00
73085;BME280;62974;49.460;10.892;2024-03-02T12:20:52;96604.19;;;10.25;100.00
73085;BME280;62974;49.460;10.892;2024-03-02T12:23:26;96617.84;;;10.35;100.00
73085;BME280;62974;49.460;10.892;2024-03-02T12:25:53;96621.97;;;10.38;100.00
73085;BME280;62974;49.460;10.892;2024-03-02T12:28:21;96613.88;;;10.26;100.00
73085;BME280;62974;49.460;10.892;2024-03-02T12:30:49;96620.22;;;10.85;100.00
73085;BME280;62974;49.460;10.892;2024-03-02T12:33:17;96608.47;;;10.56;100.00
73085;BME280;62974;49.460;10.892;2024-03-02T12:35:45;96599.44;;;10.39;100.00
73085;BME280;62974;49.460;10.892;2024-03-02T12:38:14;96612.47;;;10.65;100.00
73085;BME280;62974;49.460;10.892;2024-03-02T12:40:43;96619.19;;;10.45;100.00
73085;BME280;62974;49.460;10.892;2024-03-02T12:43:11;96612.91;;;10.51;100.00
73085;BME280;62974;49.460;10.892;2024-03-02T12:45:39;96613.38;;;10.59;100.00
73085;BME280;62974;49.460;10.892;2024-03-02T12:48:06;96606.25;;;10.53;100.00
73085;BME280;62974;49.460;10.892;2024-03-02T12:50:34;96601.00;;;10.47;100.00
73085;BME280;62974;49.460;10.892;2024-03-02T12:53:02;96601.28;;;10.27;100.00
73085;BME280;62974;49.460;10.892;2024-03-02T12:55:31;96600.03;;;10.41;100.00
73085;BME280;62974;49.460;10.892;2024-03-02T12:58:00;96598.34;;;10.58;100.00
73085;BME280;62974;49.460;10.892;2024-03-02T13:00:29;96600.78;;;10.60;100.00